createdAt,value
2023-05-17T00:00:24.833Z,0
2023-05-17T00:01:59.026Z,0
2023-05-17T00:03:15.215Z,0
2023-05-17T00:04:57.000Z,0
2023-05-17T00:05:47.614Z,0
2023-05-17T00:07:03.000Z,0
2023-05-17T00:08:01.993Z,0
2023-05-17T00:09:36.186Z,0
2023-05-17T00:10:52.000Z,0
2023-05-17T00:12:08.000Z,0
2023-05-17T00:13:24.766Z,0
2023-05-17T00:14:40.958Z,0
2023-05-17T00:15:57.151Z,0
2023-05-17T00:17:13.360Z,0
2023-05-17T00:18:28.558Z,0
2023-05-17T00:19:26.748Z,0
2023-05-17T00:20:42.941Z,0
2023-05-17T00:22:17.000Z,0
2023-05-17T00:23:33.328Z,0
2023-05-17T00:24:49.527Z,0
2023-05-17T00:26:05.000Z,0
2023-05-17T00:27:03.906Z,0
2023-05-17T00:28:20.099Z,0
2023-05-17T00:29:54.292Z,0
2023-05-17T00:30:52.486Z,0
2023-05-17T00:32:52.000Z,0
2023-05-17T00:33:24.872Z,0
2023-05-17T00:35:25.000Z,0
2023-05-17T00:36:15.382Z,0
2023-05-17T00:37:31.576Z,0
2023-05-17T00:38:47.777Z,0
2023-05-17T00:40:03.966Z,0
2023-05-17T00:41:02.159Z,0
2023-05-17T00:43:02.000Z,0
2023-05-17T00:43:34.547Z,0
2023-05-17T00:45:08.742Z,0
2023-05-17T00:46:06.936Z,0
2023-05-17T00:47:41.131Z,0
2023-05-17T00:48:57.000Z,0
2023-05-17T00:50:13.000Z,0
2023-05-17T00:51:11.714Z,0
2023-05-17T00:52:44.000Z,0
2023-05-17T00:53:43.119Z,0
2023-05-17T00:55:17.311Z,0
2023-05-17T00:56:33.507Z,0
2023-05-17T00:57:49.000Z,0
2023-05-17T00:59:05.897Z,0
2023-05-17T01:00:22.000Z,0
2023-05-17T01:01:38.289Z,0
2023-05-17T01:02:54.486Z,0
2023-05-17T01:04:10.678Z,0
2023-05-17T01:05:26.000Z,0
2023-05-17T01:06:43.070Z,0
2023-05-17T01:07:59.000Z,0
2023-05-17T01:09:15.467Z,0
2023-05-17T01:10:31.658Z,0
2023-05-17T01:11:29.849Z,0
2023-05-17T01:13:03.000Z,0
2023-05-17T01:14:19.000Z,0
2023-05-17T01:15:35.000Z,0
2023-05-17T01:16:33.644Z,0
2023-05-17T01:18:07.847Z,0
2023-05-17T01:19:06.035Z,0
2023-05-17T01:21:06.000Z,0
2023-05-17T01:21:56.437Z,0
2023-05-17T01:23:12.000Z,0
2023-05-17T01:24:10.815Z,0
2023-05-17T01:25:45.010Z,0
2023-05-17T01:27:01.205Z,0
2023-05-17T01:27:59.401Z,0
2023-05-17T01:29:15.595Z,0
2023-05-17T01:30:49.000Z,0
2023-05-17T01:32:05.985Z,0
2023-05-17T01:33:22.180Z,0
2023-05-17T01:34:20.376Z,0
2023-05-17T01:35:36.571Z,0
2023-05-17T01:36:52.766Z,0
2023-05-17T01:38:25.000Z,0
2023-05-17T01:39:42.000Z,0
2023-05-17T01:40:58.371Z,0
2023-05-17T01:41:56.561Z,0
2023-05-17T01:43:30.000Z,0
2023-05-17T01:44:46.960Z,0
2023-05-17T01:46:03.000Z,0
2023-05-17T01:47:19.340Z,0
2023-05-17T01:48:35.542Z,0
2023-05-17T01:49:33.731Z,0
2023-05-17T01:51:07.000Z,0
2023-05-17T01:52:24.121Z,0
2023-05-17T01:53:40.000Z,0
2023-05-17T01:54:38.512Z,0
2023-05-17T01:56:11.723Z,0
2023-05-17T01:57:09.917Z,0
2023-05-17T01:58:44.112Z,0
2023-05-17T01:59:42.307Z,0
2023-05-17T02:01:16.000Z,0
2023-05-17T02:02:58.000Z,0
2023-05-17T02:03:48.903Z,0
2023-05-17T02:05:05.000Z,0
2023-05-17T02:06:21.283Z,0
2023-05-17T02:07:37.480Z,0
2023-05-17T02:08:53.000Z,0
2023-05-17T02:09:51.867Z,0
2023-05-17T02:11:26.063Z,0
2023-05-17T02:12:42.257Z,0
2023-05-17T02:13:40.453Z,0
2023-05-17T02:14:56.647Z,0
2023-05-17T02:16:29.864Z,0
2023-05-17T02:17:46.059Z,0
2023-05-17T02:19:02.000Z,0
2023-05-17T02:20:00.449Z,0
2023-05-17T02:21:34.644Z,0
2023-05-17T02:22:32.839Z,0
2023-05-17T02:24:07.000Z,0
2023-05-17T02:25:05.229Z,0
2023-05-17T02:26:39.000Z,0
2023-05-17T02:27:37.619Z,0
2023-05-17T02:29:11.000Z,0
2023-05-17T02:30:28.009Z,0
2023-05-17T02:31:44.000Z,0
2023-05-17T02:33:00.414Z,0
2023-05-17T02:34:16.592Z,0
2023-05-17T02:35:13.805Z,0
2023-05-17T02:36:48.000Z,0
2023-05-17T02:37:46.196Z,0
2023-05-17T02:39:20.391Z,0
2023-05-17T02:40:36.000Z,0
2023-05-17T02:41:52.781Z,0
2023-05-17T02:43:08.976Z,0
2023-05-17T02:44:25.180Z,0
2023-05-17T02:45:41.367Z,0
2023-05-17T02:46:57.000Z,0
2023-05-17T02:48:13.000Z,0
2023-05-17T02:49:29.952Z,0
2023-05-17T02:50:46.000Z,0
2023-05-17T02:52:02.000Z,0
2023-05-17T02:53:18.537Z,0
2023-05-17T02:54:33.761Z,0
2023-05-17T02:55:49.943Z,0
2023-05-17T02:57:06.000Z,0
2023-05-17T02:58:22.333Z,0
2023-05-17T02:59:38.000Z,0
2023-05-17T03:00:36.723Z,0
2023-05-17T03:02:10.918Z,0
2023-05-17T03:03:27.113Z,0
2023-05-17T03:04:43.316Z,0
2023-05-17T03:05:59.509Z,0
2023-05-17T03:07:15.699Z,0
2023-05-17T03:08:31.893Z,0
2023-05-17T03:09:48.000Z,0
2023-05-17T03:11:04.289Z,0
2023-05-17T03:12:19.496Z,0
2023-05-17T03:13:17.690Z,5
2023-05-17T03:14:51.000Z,5
2023-05-17T03:16:08.095Z,5
2023-05-17T03:17:24.000Z,5
2023-05-17T03:18:22.470Z,5
2023-05-17T03:19:38.665Z,5
2023-05-17T03:21:12.000Z,5
2023-05-17T03:22:11.056Z,5
2023-05-17T03:23:45.250Z,5
2023-05-17T03:25:01.000Z,11
2023-05-17T03:25:59.640Z,11
2023-05-17T03:27:15.836Z,11
2023-05-17T03:28:31.047Z,11
2023-05-17T03:30:05.242Z,11
2023-05-17T03:31:21.437Z,11
2023-05-17T03:32:37.000Z,11
2023-05-17T03:33:53.827Z,16
2023-05-17T03:35:36.000Z,16
2023-05-17T03:36:08.217Z,16
2023-05-17T03:37:42.421Z,22
2023-05-17T03:38:40.607Z,22
2023-05-17T03:40:14.803Z,22
2023-05-17T03:41:30.999Z,22
2023-05-17T03:42:47.197Z,28
2023-05-17T03:44:03.395Z,28
2023-05-17T03:45:01.583Z,33
2023-05-17T03:46:35.778Z,33
2023-05-17T03:47:51.000Z,33
2023-05-17T03:49:08.182Z,33
2023-05-17T03:50:05.379Z,39
2023-05-17T03:51:21.573Z,39
2023-05-17T03:52:55.000Z,39
2023-05-17T03:53:53.964Z,45
2023-05-17T03:55:28.000Z,45
2023-05-17T03:56:44.358Z,45
2023-05-17T03:58:00.558Z,50
2023-05-17T03:59:16.744Z,50
2023-05-17T04:00:32.000Z,50
2023-05-17T04:01:31.134Z,56
2023-05-17T04:03:05.000Z,56
2023-05-17T04:04:21.525Z,61
2023-05-17T04:05:19.720Z,61
2023-05-17T04:06:35.914Z,61
2023-05-17T04:08:10.232Z,67
2023-05-17T04:09:26.431Z,67
2023-05-17T04:10:42.000Z,73
2023-05-17T04:11:58.817Z,84
2023-05-17T04:13:15.022Z,84
2023-05-17T04:14:31.208Z,84
2023-05-17T04:16:13.000Z,84
2023-05-17T04:16:45.597Z,90
2023-05-17T04:18:19.000Z,84
2023-05-17T04:19:36.001Z,78
2023-05-17T04:20:52.000Z,84
2023-05-17T04:21:50.377Z,95
2023-05-17T04:23:24.000Z,95
2023-05-17T04:24:40.767Z,101
2023-05-17T04:25:56.000Z,101
2023-05-17T04:27:13.000Z,106
2023-05-17T04:28:29.355Z,106
2023-05-17T04:29:26.563Z,112
2023-05-17T04:31:00.000Z,112
2023-05-17T04:31:58.954Z,112
2023-05-17T04:33:33.000Z,112
2023-05-17T04:34:31.344Z,118
2023-05-17T04:36:05.551Z,118
2023-05-17T04:37:21.000Z,118
2023-05-17T04:38:37.927Z,123
2023-05-17T04:39:36.124Z,123
2023-05-17T04:41:10.000Z,123
2023-05-17T04:42:08.514Z,106
2023-05-17T04:43:42.717Z,123
2023-05-17T04:44:58.918Z,129
2023-05-17T04:45:57.100Z,135
2023-05-17T04:47:13.294Z,135
2023-05-17T04:48:47.000Z,118
2023-05-17T04:50:03.685Z,129
2023-05-17T04:51:19.000Z,140
2023-05-17T04:52:36.000Z,140
2023-05-17T04:53:52.000Z,140
2023-05-17T04:54:50.465Z,123
2023-05-17T04:56:24.000Z,146
2023-05-17T04:57:40.868Z,151
2023-05-17T04:58:38.067Z,151
2023-05-17T04:59:54.262Z,151
2023-05-17T05:01:28.000Z,157
2023-05-17T05:02:44.652Z,157
2023-05-17T05:04:00.000Z,157
2023-05-17T05:05:17.000Z,157
2023-05-17T05:06:33.240Z,151
2023-05-17T05:07:31.433Z,163
2023-05-17T05:09:05.000Z,163
2023-05-17T05:10:21.834Z,163
2023-05-17T05:11:38.018Z,168
2023-05-17T05:12:54.213Z,168
2023-05-17T05:14:10.417Z,168
2023-05-17T05:15:25.619Z,146
2023-05-17T05:16:41.000Z,174
2023-05-17T05:17:58.000Z,174
2023-05-17T05:19:14.205Z,174
2023-05-17T05:20:12.400Z,168
2023-05-17T05:21:46.604Z,168
2023-05-17T05:23:02.789Z,174
2023-05-17T05:24:18.000Z,168
2023-05-17T05:25:35.186Z,174
2023-05-17T05:26:51.000Z,180
2023-05-17T05:28:07.573Z,191
2023-05-17T05:29:23.772Z,157
2023-05-17T05:30:39.965Z,174
2023-05-17T05:31:56.000Z,191
2023-05-17T05:33:12.372Z,180
2023-05-17T05:34:28.000Z,157
2023-05-17T05:35:44.753Z,157
2023-05-17T05:36:59.962Z,168
2023-05-17T05:37:58.154Z,163
2023-05-17T05:39:32.000Z,157
2023-05-17T05:40:48.000Z,168
2023-05-17T05:42:04.000Z,146
2023-05-17T05:43:02.937Z,151
2023-05-17T05:44:37.133Z,163
2023-05-17T05:45:35.328Z,157
2023-05-17T05:47:35.000Z,185
2023-05-17T05:48:07.719Z,191
2023-05-17T05:49:41.000Z,191
2023-05-17T05:50:58.110Z,174
2023-05-17T05:52:14.000Z,174
2023-05-17T05:53:30.500Z,157
2023-05-17T05:54:46.000Z,163
2023-05-17T05:55:44.891Z,168
2023-05-17T05:57:18.000Z,219
2023-05-17T05:58:34.311Z,174
2023-05-17T05:59:50.000Z,208
2023-05-17T06:00:48.688Z,168
2023-05-17T06:02:22.000Z,191
2023-05-17T06:03:39.079Z,225
2023-05-17T06:04:55.000Z,180
2023-05-17T06:06:11.471Z,236
2023-05-17T06:07:27.679Z,185
2023-05-17T06:08:25.862Z,208
2023-05-17T06:10:26.000Z,168
2023-05-17T06:10:58.252Z,168
2023-05-17T06:12:32.449Z,225
2023-05-17T06:13:48.642Z,168
2023-05-17T06:15:03.865Z,163
2023-05-17T06:16:02.051Z,174
2023-05-17T06:17:36.247Z,208
2023-05-17T06:18:52.442Z,185
2023-05-17T06:20:08.000Z,174
2023-05-17T06:21:06.832Z,230
2023-05-17T06:22:41.039Z,213
2023-05-17T06:23:57.223Z,185
2023-05-17T06:25:13.000Z,202
2023-05-17T06:26:29.613Z,180
2023-05-17T06:27:45.000Z,180
2023-05-17T06:28:44.005Z,191
2023-05-17T06:30:18.201Z,180
2023-05-17T06:31:33.419Z,191
2023-05-17T06:33:15.000Z,230
2023-05-17T06:33:47.809Z,219
2023-05-17T06:35:22.000Z,225
2023-05-17T06:36:20.200Z,213
2023-05-17T06:37:54.396Z,213
2023-05-17T06:38:52.592Z,225
2023-05-17T06:40:26.000Z,196
2023-05-17T06:41:24.982Z,236
2023-05-17T06:42:59.000Z,258
2023-05-17T06:44:15.372Z,253
2023-05-17T06:45:31.585Z,258
2023-05-17T06:46:29.762Z,264
2023-05-17T06:48:03.000Z,264
2023-05-17T06:49:02.154Z,264
2023-05-17T06:50:36.000Z,270
2023-05-17T06:51:52.562Z,270
2023-05-17T06:53:07.000Z,270
2023-05-17T06:54:23.957Z,264
2023-05-17T06:55:40.000Z,258
2023-05-17T06:56:56.000Z,253
2023-05-17T06:58:12.000Z,253
2023-05-17T06:59:28.741Z,247
2023-05-17T07:00:44.940Z,253
2023-05-17T07:01:43.124Z,253
2023-05-17T07:03:17.000Z,253
2023-05-17T07:04:15.514Z,253
2023-05-17T07:05:49.000Z,258
2023-05-17T07:07:05.000Z,258
2023-05-17T07:08:22.110Z,258
2023-05-17T07:09:37.000Z,258
2023-05-17T07:10:35.508Z,236
2023-05-17T07:12:09.716Z,253
2023-05-17T07:13:25.000Z,264
2023-05-17T07:14:24.092Z,270
2023-05-17T07:15:58.000Z,219
2023-05-17T07:17:14.481Z,247
2023-05-17T07:18:30.000Z,281
2023-05-17T07:19:28.871Z,253
2023-05-17T07:21:03.000Z,219
2023-05-17T07:22:19.000Z,264
2023-05-17T07:23:35.457Z,298
2023-05-17T07:24:33.653Z,236
2023-05-17T07:26:07.970Z,253
2023-05-17T07:27:06.165Z,281
2023-05-17T07:28:40.000Z,241
2023-05-17T07:29:56.555Z,225
2023-05-17T07:31:12.000Z,225
2023-05-17T07:32:10.945Z,213
2023-05-17T07:34:11.000Z,208
2023-05-17T07:35:01.335Z,270
2023-05-17T07:36:17.000Z,253
2023-05-17T07:37:15.726Z,275
2023-05-17T07:38:49.000Z,275
2023-05-17T07:39:48.116Z,270
2023-05-17T07:41:22.000Z,275
2023-05-17T07:42:38.507Z,275
2023-05-17T07:43:54.000Z,230
2023-05-17T07:44:52.898Z,286
2023-05-17T07:46:26.000Z,275
2023-05-17T07:47:42.000Z,196
2023-05-17T07:48:58.000Z,253
2023-05-17T07:50:14.696Z,241
2023-05-17T07:51:30.000Z,264
2023-05-17T07:52:47.087Z,264
2023-05-17T07:54:03.283Z,258
2023-05-17T07:55:01.477Z,258
2023-05-17T07:56:35.673Z,258
2023-05-17T07:57:51.866Z,258
2023-05-17T07:59:08.000Z,258
2023-05-17T08:00:24.000Z,258
2023-05-17T08:01:40.000Z,258
2023-05-17T08:03:21.000Z,258
2023-05-17T08:03:53.859Z,258
2023-05-17T08:05:28.072Z,264
2023-05-17T08:06:44.000Z,264
2023-05-17T08:08:00.464Z,270
2023-05-17T08:09:16.643Z,270
2023-05-17T08:10:32.835Z,264
2023-05-17T08:11:49.000Z,202
2023-05-17T08:13:05.000Z,270
2023-05-17T08:14:21.420Z,213
2023-05-17T08:15:37.629Z,264
2023-05-17T08:16:53.000Z,264
2023-05-17T08:18:10.000Z,264
2023-05-17T08:19:26.000Z,264
2023-05-17T08:20:42.403Z,264
2023-05-17T08:21:57.608Z,264
2023-05-17T08:23:13.000Z,264
2023-05-17T08:24:29.998Z,270
2023-05-17T08:25:46.000Z,264
2023-05-17T08:27:02.000Z,264
2023-05-17T08:28:18.583Z,230
2023-05-17T08:29:34.779Z,270
2023-05-17T08:30:50.984Z,270
2023-05-17T08:32:07.000Z,270
2023-05-17T08:33:23.382Z,270
2023-05-17T08:34:39.559Z,270
2023-05-17T08:35:55.766Z,264
2023-05-17T08:37:11.949Z,264
2023-05-17T08:38:28.000Z,264
2023-05-17T08:39:44.349Z,264
2023-05-17T08:41:00.000Z,264
2023-05-17T08:42:16.729Z,264
2023-05-17T08:43:14.924Z,264
2023-05-17T08:44:49.000Z,264
2023-05-17T08:45:47.314Z,264
2023-05-17T08:47:20.539Z,264
2023-05-17T08:48:36.736Z,270
2023-05-17T08:50:19.000Z,264
2023-05-17T08:51:09.111Z,264
2023-05-17T08:52:25.000Z,264
2023-05-17T08:53:41.501Z,270
2023-05-17T08:54:57.000Z,264
2023-05-17T08:56:13.000Z,264
2023-05-17T08:57:30.000Z,264
2023-05-17T08:58:46.296Z,270
2023-05-17T09:00:02.000Z,264
2023-05-17T09:01:00.673Z,264
2023-05-17T09:02:34.000Z,264
2023-05-17T09:03:51.063Z,264
2023-05-17T09:05:07.258Z,258
2023-05-17T09:06:23.000Z,258
2023-05-17T09:07:39.000Z,264
2023-05-17T09:08:37.846Z,258
2023-05-17T09:10:12.052Z,258
2023-05-17T09:11:28.248Z,275
2023-05-17T09:12:43.000Z,258
2023-05-17T09:13:59.643Z,270
2023-05-17T09:15:15.000Z,281
2023-05-17T09:16:32.000Z,264
2023-05-17T09:17:48.239Z,264
2023-05-17T09:19:04.000Z,264
2023-05-17T09:20:20.000Z,270
2023-05-17T09:21:36.000Z,270
2023-05-17T09:22:53.000Z,270
2023-05-17T09:24:09.206Z,275
2023-05-17T09:25:25.401Z,292
2023-05-17T09:26:23.596Z,275
2023-05-17T09:27:57.000Z,286
2023-05-17T09:29:13.986Z,275
2023-05-17T09:30:30.182Z,275
2023-05-17T09:31:46.381Z,275
2023-05-17T09:33:01.590Z,275
2023-05-17T09:34:17.795Z,281
2023-05-17T09:35:33.979Z,281
2023-05-17T09:36:50.180Z,281
2023-05-17T09:38:06.000Z,281
2023-05-17T09:39:48.000Z,281
2023-05-17T09:40:38.000Z,281
2023-05-17T09:41:54.000Z,281
2023-05-17T09:43:11.000Z,315
2023-05-17T09:44:27.000Z,281
2023-05-17T09:45:43.541Z,281
2023-05-17T09:46:59.755Z,281
2023-05-17T09:48:15.946Z,281
2023-05-17T09:49:32.144Z,286
2023-05-17T09:50:47.000Z,281
2023-05-17T09:52:03.533Z,309
2023-05-17T09:53:19.000Z,286
2023-05-17T09:54:35.923Z,281
2023-05-17T09:55:52.118Z,281
2023-05-17T09:57:08.312Z,281
2023-05-17T09:58:24.000Z,286
2023-05-17T09:59:22.701Z,292
2023-05-17T10:00:56.896Z,286
2023-05-17T10:01:55.090Z,286
2023-05-17T10:03:29.000Z,286
2023-05-17T10:04:27.482Z,286
2023-05-17T10:06:01.000Z,292
2023-05-17T10:07:17.000Z,292
2023-05-17T10:08:34.067Z,298
2023-05-17T10:09:50.260Z,298
2023-05-17T10:11:06.454Z,315
2023-05-17T10:12:22.650Z,292
2023-05-17T10:13:38.000Z,292
2023-05-17T10:14:55.000Z,298
2023-05-17T10:16:11.000Z,298
2023-05-17T10:17:27.424Z,298
2023-05-17T10:18:43.610Z,298
2023-05-17T10:19:58.819Z,298
2023-05-17T10:21:15.000Z,303
2023-05-17T10:22:31.000Z,309
2023-05-17T10:23:47.000Z,298
2023-05-17T10:25:03.604Z,298
2023-05-17T10:26:19.784Z,309
2023-05-17T10:27:35.985Z,303
2023-05-17T10:28:52.172Z,303
2023-05-17T10:29:50.362Z,303
2023-05-17T10:31:24.000Z,309
2023-05-17T10:32:40.748Z,309
2023-05-17T10:33:56.945Z,309
2023-05-17T10:35:13.000Z,309
2023-05-17T10:36:54.000Z,326
2023-05-17T10:37:26.535Z,315
2023-05-17T10:39:00.728Z,315
2023-05-17T10:40:16.000Z,315
2023-05-17T10:41:33.000Z,320
2023-05-17T10:42:49.306Z,331
2023-05-17T10:44:05.000Z,320
2023-05-17T10:45:21.000Z,326
2023-05-17T10:46:37.000Z,326
2023-05-17T10:47:36.078Z,326
2023-05-17T10:49:10.277Z,286
2023-05-17T10:50:08.464Z,326
2023-05-17T10:51:42.000Z,331
2023-05-17T10:53:25.000Z,326
2023-05-17T10:54:15.000Z,331
2023-05-17T10:55:31.244Z,337
2023-05-17T10:56:46.450Z,337
2023-05-17T10:58:02.644Z,354
2023-05-17T10:59:00.836Z,337
2023-05-17T11:00:17.029Z,337
2023-05-17T11:01:51.000Z,343
2023-05-17T11:02:49.415Z,348
2023-05-17T11:04:23.617Z,208
2023-05-17T11:05:39.812Z,326
2023-05-17T11:06:56.000Z,348
2023-05-17T11:08:12.190Z,348
2023-05-17T11:09:28.000Z,348
2023-05-17T11:10:44.000Z,348
2023-05-17T11:12:00.000Z,354
2023-05-17T11:13:16.000Z,365
2023-05-17T11:14:59.000Z,348
2023-05-17T11:15:31.344Z,348
2023-05-17T11:17:05.000Z,354
2023-05-17T11:18:21.736Z,365
2023-05-17T11:19:37.922Z,354
2023-05-17T11:20:35.132Z,382
2023-05-17T11:22:09.000Z,371
2023-05-17T11:23:25.000Z,258
2023-05-17T11:24:41.000Z,376
2023-05-17T11:25:57.000Z,371
2023-05-17T11:27:14.000Z,388
2023-05-17T11:28:30.000Z,376
2023-05-17T11:29:28.484Z,382
2023-05-17T11:30:44.677Z,388
2023-05-17T11:32:18.000Z,388
2023-05-17T11:33:17.063Z,388
2023-05-17T11:34:51.268Z,393
2023-05-17T11:37:23.649Z,405
2023-05-17T11:40:54.342Z,433
2023-05-17T11:42:28.540Z,438
2023-05-17T11:43:44.877Z,433
2023-05-17T11:44:42.095Z,444
2023-05-17T11:46:16.305Z,461
2023-05-17T11:51:20.091Z,568
2023-05-17T11:53:34.461Z,585
2023-05-17T11:55:08.000Z,618
2023-05-17T11:56:06.848Z,646
2023-05-17T11:57:41.053Z,675
2023-05-17T11:58:57.244Z,691
2023-05-17T12:00:13.000Z,601
2023-05-17T12:01:29.000Z,489
2023-05-17T12:02:45.000Z,444
2023-05-17T12:03:44.005Z,433
2023-05-17T12:05:18.000Z,427
2023-05-17T12:06:34.000Z,405
2023-05-17T12:07:50.585Z,433
2023-05-17T12:08:48.778Z,410
2023-05-17T12:10:22.000Z,410
2023-05-17T12:11:38.196Z,405
2023-05-17T12:12:53.411Z,405
2023-05-17T12:14:09.000Z,410
2023-05-17T12:15:51.000Z,410
2023-05-17T12:16:41.000Z,416
2023-05-17T12:17:58.000Z,399
2023-05-17T12:18:56.364Z,382
2023-05-17T12:20:30.570Z,416
2023-05-17T12:21:46.000Z,405
2023-05-17T12:22:44.943Z,405
2023-05-17T12:24:19.136Z,405
2023-05-17T12:25:35.000Z,405
2023-05-17T12:26:51.000Z,410
2023-05-17T12:28:07.715Z,421
2023-05-17T12:29:05.908Z,393
2023-05-17T12:30:40.112Z,354
2023-05-17T12:31:56.301Z,315
2023-05-17T12:33:12.000Z,303
2023-05-17T12:34:28.682Z,303
2023-05-17T12:35:43.898Z,303
2023-05-17T12:36:42.092Z,298
2023-05-17T12:38:16.301Z,298
2023-05-17T12:39:32.477Z,298
2023-05-17T12:40:48.681Z,298
2023-05-17T12:42:03.000Z,298
2023-05-17T12:43:20.092Z,315
2023-05-17T12:44:18.264Z,303
2023-05-17T12:45:52.000Z,303
2023-05-17T12:47:08.652Z,298
2023-05-17T12:48:24.000Z,303
2023-05-17T12:49:41.000Z,298
2023-05-17T12:50:57.000Z,298
2023-05-17T12:52:12.447Z,298
2023-05-17T12:53:28.000Z,298
2023-05-17T12:54:44.000Z,303
2023-05-17T12:56:01.000Z,303
2023-05-17T12:57:17.000Z,320
2023-05-17T12:58:33.423Z,309
2023-05-17T12:59:31.725Z,303
2023-05-17T13:01:05.000Z,309
2023-05-17T13:02:22.116Z,309
2023-05-17T13:03:38.304Z,309
2023-05-17T13:04:54.497Z,315
2023-05-17T13:06:10.690Z,320
2023-05-17T13:07:26.890Z,320
2023-05-17T13:08:43.000Z,320
2023-05-17T13:09:41.269Z,326
2023-05-17T13:11:15.000Z,326
2023-05-17T13:12:31.000Z,326
2023-05-17T13:13:47.860Z,331
2023-05-17T13:15:04.000Z,348
2023-05-17T13:16:19.250Z,450
2023-05-17T13:17:35.000Z,523
2023-05-17T13:18:51.000Z,556
2023-05-17T13:19:49.828Z,613
2023-05-17T13:21:24.000Z,697
2023-05-17T13:22:21.239Z,860
2023-05-17T13:23:55.000Z,1192
2023-05-17T13:25:11.000Z,1614
2023-05-17T13:26:27.000Z,1440
2023-05-17T13:27:26.012Z,416
2023-05-17T13:28:59.222Z,669
2023-05-17T13:30:15.000Z,1023
2023-05-17T13:31:31.607Z,1023
2023-05-17T13:32:47.000Z,967
2023-05-17T13:34:04.000Z,900
2023-05-17T13:35:20.189Z,883
2023-05-17T13:36:36.383Z,787
2023-05-17T13:37:52.000Z,759
2023-05-17T13:39:08.770Z,753
2023-05-17T13:40:06.961Z,753
2023-05-17T13:41:41.000Z,742
2023-05-17T13:42:57.000Z,742
2023-05-17T13:44:13.000Z,708
2023-05-17T13:45:28.754Z,691
2023-05-17T13:46:44.942Z,703
2023-05-17T13:48:01.000Z,708
2023-05-17T13:49:17.000Z,720
2023-05-17T13:50:33.683Z,697
2023-05-17T13:51:48.878Z,691
2023-05-17T13:52:47.070Z,697
2023-05-17T13:54:21.269Z,663
2023-05-17T13:55:37.000Z,495
2023-05-17T13:56:53.000Z,421
2023-05-17T13:58:09.000Z,410
2023-05-17T13:59:26.033Z,399
2023-05-17T14:00:24.226Z,393
2023-05-17T14:01:58.000Z,388
2023-05-17T14:03:14.622Z,399
2023-05-17T14:04:30.000Z,388
2023-05-17T14:05:47.003Z,371
2023-05-17T14:07:03.194Z,388
2023-05-17T14:08:18.000Z,388
2023-05-17T14:09:34.000Z,388
2023-05-17T14:10:50.000Z,388
2023-05-17T14:12:06.000Z,393
2023-05-17T14:13:23.184Z,393
2023-05-17T14:14:39.376Z,393
2023-05-17T14:15:55.565Z,393
2023-05-17T14:17:10.000Z,399
2023-05-17T14:18:26.977Z,399
2023-05-17T14:19:43.000Z,399
2023-05-17T14:20:59.000Z,416
2023-05-17T14:22:15.684Z,410
2023-05-17T14:23:31.872Z,421
2023-05-17T14:24:48.000Z,416
2023-05-17T14:25:46.256Z,416
2023-05-17T14:27:20.000Z,427
2023-05-17T14:28:18.643Z,444
2023-05-17T14:29:52.000Z,444
2023-05-17T14:31:09.038Z,455
2023-05-17T14:32:25.000Z,461
2023-05-17T14:33:41.417Z,466
2023-05-17T14:34:57.000Z,466
2023-05-17T14:35:55.804Z,466
2023-05-17T14:37:30.012Z,483
2023-05-17T14:38:27.206Z,483
2023-05-17T14:40:01.000Z,489
2023-05-17T14:41:17.600Z,483
2023-05-17T14:42:32.814Z,495
2023-05-17T14:43:31.007Z,506
2023-05-17T14:45:05.208Z,500
2023-05-17T14:46:21.418Z,523
2023-05-17T14:48:03.000Z,523
2023-05-17T14:48:53.000Z,528
2023-05-17T14:50:10.000Z,478
2023-05-17T14:51:26.312Z,545
2023-05-17T14:52:42.511Z,478
2023-05-17T14:53:39.713Z,365
2023-05-17T14:55:13.000Z,433
2023-05-17T14:56:30.101Z,562
2023-05-17T14:57:46.294Z,540
2023-05-17T14:59:02.488Z,568
2023-05-17T15:00:18.699Z,573
2023-05-17T15:01:34.874Z,360
2023-05-17T15:02:51.000Z,348
2023-05-17T15:03:49.262Z,343
2023-05-17T15:05:23.000Z,382
2023-05-17T15:06:39.649Z,410
2023-05-17T15:07:55.850Z,517
2023-05-17T15:08:54.035Z,365
2023-05-17T15:10:27.000Z,365
2023-05-17T15:11:43.000Z,371
2023-05-17T15:12:59.643Z,382
2023-05-17T15:13:56.845Z,601
2023-05-17T15:15:31.044Z,466
2023-05-17T15:16:29.231Z,466
2023-05-17T15:18:03.000Z,641
2023-05-17T15:19:19.618Z,483
2023-05-17T15:20:35.000Z,421
2023-05-17T15:21:34.004Z,495
2023-05-17T15:23:08.207Z,376
2023-05-17T15:24:24.391Z,427
2023-05-17T15:25:40.000Z,433
2023-05-17T15:26:38.777Z,388
2023-05-17T15:28:12.000Z,421
2023-05-17T15:29:11.163Z,635
2023-05-17T15:30:45.357Z,630
2023-05-17T15:32:00.000Z,652
2023-05-17T15:33:16.000Z,652
2023-05-17T15:34:14.953Z,635
2023-05-17T15:35:49.000Z,630
2023-05-17T15:37:05.341Z,433
2023-05-17T15:38:03.534Z,630
2023-05-17T15:39:37.729Z,388
2023-05-17T15:40:53.939Z,399
2023-05-17T15:42:10.119Z,466
2023-05-17T15:43:26.000Z,551
2023-05-17T15:44:24.501Z,652
2023-05-17T15:45:58.000Z,596
2023-05-17T15:46:56.889Z,613
2023-05-17T15:48:30.000Z,613
2023-05-17T15:49:46.292Z,635
2023-05-17T15:51:02.485Z,607
2023-05-17T15:52:00.678Z,663
2023-05-17T15:53:34.875Z,680
2023-05-17T15:54:33.064Z,697
2023-05-17T15:56:07.257Z,511
2023-05-17T15:57:23.464Z,691
2023-05-17T15:58:39.000Z,708
2023-05-17T15:59:37.835Z,708
2023-05-17T16:01:12.000Z,708
2023-05-17T16:02:28.000Z,714
2023-05-17T16:03:44.413Z,703
2023-05-17T16:05:00.606Z,596
2023-05-17T16:06:16.000Z,720
2023-05-17T16:07:33.000Z,697
2023-05-17T16:08:49.183Z,686
2023-05-17T16:10:04.392Z,714
2023-05-17T16:11:20.585Z,703
2023-05-17T16:12:18.778Z,736
2023-05-17T16:13:52.000Z,770
2023-05-17T16:15:09.000Z,736
2023-05-17T16:16:25.000Z,714
2023-05-17T16:17:23.548Z,736
2023-05-17T16:18:57.758Z,703
2023-05-17T16:19:55.934Z,697
2023-05-17T16:21:30.000Z,686
2023-05-17T16:22:28.319Z,652
2023-05-17T16:24:02.517Z,652
2023-05-17T16:25:18.712Z,641
2023-05-17T16:26:15.913Z,618
2023-05-17T16:27:50.105Z,607
2023-05-17T16:29:06.000Z,607
2023-05-17T16:30:04.490Z,596
2023-05-17T16:31:20.682Z,596
2023-05-17T16:32:36.875Z,590
2023-05-17T16:33:53.068Z,590
2023-05-17T16:35:09.261Z,601
2023-05-17T16:36:43.000Z,585
2023-05-17T16:37:41.646Z,596
2023-05-17T16:39:15.839Z,596
2023-05-17T16:40:32.031Z,601
2023-05-17T16:41:48.000Z,601
2023-05-17T16:42:46.417Z,601
2023-05-17T16:44:20.609Z,607
2023-05-17T16:45:18.802Z,601
2023-05-17T16:46:52.000Z,601
2023-05-17T16:48:08.219Z,607
2023-05-17T16:49:24.000Z,601
2023-05-17T16:50:40.589Z,596
2023-05-17T16:51:56.000Z,630
2023-05-17T16:53:12.000Z,596
2023-05-17T16:54:29.000Z,646
2023-05-17T16:55:27.360Z,663
2023-05-17T16:57:01.553Z,703
2023-05-17T16:57:59.745Z,1288
2023-05-17T16:59:33.000Z,1940
2023-05-17T17:00:50.000Z,2075
2023-05-17T17:01:48.324Z,2047
2023-05-17T17:03:04.516Z,1935
2023-05-17T17:04:37.731Z,1968
2023-05-17T17:05:53.917Z,2036
2023-05-17T17:07:10.000Z,1963
2023-05-17T17:08:52.000Z,2002
2023-05-17T17:09:42.000Z,1940
2023-05-17T17:10:58.000Z,1963
2023-05-17T17:12:14.880Z,551
2023-05-17T17:13:13.073Z,691
2023-05-17T17:14:47.000Z,495
2023-05-17T17:15:45.458Z,1423
2023-05-17T17:17:19.650Z,2160
2023-05-17T17:18:35.843Z,1906
2023-05-17T17:19:52.038Z,1018
2023-05-17T17:20:50.229Z,2058
2023-05-17T17:22:24.000Z,2098
2023-05-17T17:23:22.615Z,1968
2023-05-17T17:24:56.819Z,1951
2023-05-17T17:26:13.003Z,1220
2023-05-17T17:27:29.202Z,1108
2023-05-17T17:28:27.388Z,1631
2023-05-17T17:30:01.000Z,1935
2023-05-17T17:31:17.775Z,1940
2023-05-17T17:32:33.976Z,2025
2023-05-17T17:33:31.177Z,1996
2023-05-17T17:35:05.000Z,1951
2023-05-17T17:36:21.000Z,1856
2023-05-17T17:37:37.000Z,1895
2023-05-17T17:38:53.953Z,1805
2023-05-17T17:40:10.142Z,1822
2023-05-17T17:41:52.000Z,1755
2023-05-17T17:42:42.000Z,1766
2023-05-17T17:43:58.000Z,1788
2023-05-17T17:45:14.915Z,1743
2023-05-17T17:46:13.108Z,1681
2023-05-17T17:47:47.000Z,1625
2023-05-17T17:48:45.494Z,1636
2023-05-17T17:50:19.000Z,1552
2023-05-17T17:51:35.882Z,1513